Time;durP1;ratioP1;P1;durP2;ratioP2;P2;SDS_P1;SDS_P2;PMS_P1;PMS_P2;Temp;Humidity;BMP_temperature;BMP_pressure;BME280_temperature;BME280_humidity;BME280_pressure;Samples;Min_cycle;Max_cycle;Signal;HPM_P1;HPM_P2
2021/11/01 00:02:19;;;;;;;13.00;3.43;;;10.10;99.90;;;;;;5073474;28;20223;-60
2021/11/01 00:04:46;;;;;;;13.83;3.37;;;10.10;99.90;;;;;;5073979;28;20244;-60
2021/11/01 00:07:14;;;;;;;12.40;3.23;;;10.00;1.00;;;;;;5074239;28;20610;-61
2021/11/01 00:09:41;;;;;;;12.67;3.03;;;10.00;1.00;;;;;;5074671;28;20205;-59
2021/11/01 00:12:08;;;;;;;15.00;3.23;;;10.00;99.90;;;;;;5074362;28;20240;-60
2021/11/01 00:14:34;;;;;;;14.70;3.07;;;10.00;99.90;;;;;;5074129;28;20204;-60
2021/11/01 00:17:03;;;;;;;21.40;3.97;;;9.90;99.90;;;;;;5074179;28;20197;-60
2021/11/01 00:19:30;;;;;;;11.13;3.13;;;9.90;99.90;;;;;;5074171;28;20226;-60
2021/11/01 00:21:57;;;;;;;13.17;3.03;;;9.90;99.90;;;;;;5073885;28;20281;-60
2021/11/01 00:24:23;;;;;;;11.50;3.30;;;9.80;46.40;;;;;;5074274;28;20209;-60
2021/11/01 00:26:50;;;;;;;13.47;3.40;;;9.80;1.00;;;;;;5073729;28;20221;-60
2021/11/01 00:29:17;;;;;;;9.97;3.43;;;9.80;99.90;;;;;;5074091;28;20212;-60
2021/11/01 00:31:43;;;;;;;15.90;3.50;;;9.80;99.90;;;;;;5073917;28;20233;-60
2021/11/01 00:34:11;;;;;;;13.37;3.23;;;9.80;68.40;;;;;;5073796;28;20549;-60
2021/11/01 00:36:38;;;;;;;10.93;2.90;;;9.80;67.60;;;;;;5073785;28;20209;-60
2021/11/01 00:39:05;;;;;;;17.83;3.23;;;9.70;1.00;;;;;;5073980;28;20267;-60
2021/11/01 00:41:31;;;;;;;9.43;3.20;;;9.70;99.90;;;;;;5073845;28;20204;-60
2021/11/01 00:43:59;;;;;;;16.00;3.03;;;9.70;1.00;;;;;;5073732;28;20638;-60
2021/11/01 00:46:26;;;;;;;12.67;2.97;;;9.60;99.90;;;;;;5073338;28;20228;-60
2021/11/01 00:48:53;;;;;;;15.37;3.13;;;9.60;92.50;;;;;;5073640;28;20216;-60
2021/11/01 00:51:22;;;;;;;17.47;3.10;;;9.60;1.00;;;;;;5073647;28;20350;-60
2021/11/01 00:53:48;;;;;;;13.23;2.60;;;9.60;1.00;;;;;;5073868;28;20209;-60
2021/11/01 00:56:16;;;;;;;13.83;2.90;;;9.60;99.90;;;;;;5073177;28;20212;-60
2021/11/01 00:58:43;;;;;;;15.60;2.60;;;9.60;99.90;;;;;;5073591;28;20211;-60
2021/11/01 01:01:11;;;;;;;10.50;2.50;;;9.60;99.90;;;;;;5073199;28;20270;-59
2021/11/01 01:03:38;;;;;;;13.93;3.13;;;9.60;93.20;;;;;;5073541;28;20287;-60
2021/11/01 01:06:05;;;;;;;13.17;3.47;;;9.50;1.00;;;;;;5073081;28;20208;-60
2021/11/01 01:08:33;;;;;;;10.43;2.93;;;9.50;1.00;;;;;;5073400;28;20203;-60
2021/11/01 01:10:59;;;;;;;17.07;3.40;;;9.50;99.90;;;;;;5073168;28;20677;-60
2021/11/01 01:13:29;;;;;;;10.27;3.10;;;9.40;99.90;;;;;;5072616;28;20233;-60
2021/11/01 01:16:00;;;;;;;18.40;2.50;;;9.50;99.90;;;;;;5072475;28;20208;-60
2021/11/01 01:18:29;;;;;;;18.20;3.03;;;9.40;99.90;;;;;;5073134;28;20308;-60
2021/11/01 01:20:59;;;;;;;13.83;2.43;;;9.40;99.90;;;;;;5073074;28;20219;-60
2021/11/01 01:23:26;;;;;;;10.20;2.50;;;9.40;99.90;;;;;;5072715;28;20790;-60
2021/11/01 01:25:59;;;;;;;15.03;2.77;;;9.40;99.90;;;;;;5072542;28;20638;-61
2021/11/01 01:28:26;;;;;;;16.60;2.50;;;9.40;99.90;;;;;;5072598;28;20212;-60
2021/11/01 01:30:55;;;;;;;14.57;3.10;;;9.40;65.00;;;;;;5072923;28;20215;-60
2021/11/01 01:33:22;;;;;;;10.90;2.33;;;9.40;1.00;;;;;;5072873;28;20232;-60
2021/11/01 01:35:48;;;;;;;11.07;2.50;;;9.40;1.00;;;;;;5072334;28;20265;-59
2021/11/01 01:38:16;;;;;;;12.00;2.50;;;9.40;1.00;;;;;;5072754;28;20261;-60
2021/11/01 01:40:43;;;;;;;15.10;2.67;;;9.30;99.90;;;;;;5072408;28;20201;-59
2021/11/01 01:43:11;;;;;;;10.17;2.70;;;9.30;99.90;;;;;;5072416;28;20229;-60
2021/11/01 01:45:37;;;;;;;10.23;2.40;;;9.40;99.90;;;;;;5072172;28;20305;-60
2021/11/01 01:48:05;;;;;;;11.10;2.73;;;9.30;6.00;;;;;;5072537;28;20303;-60
2021/11/01 01:50:32;;;;;;;10.53;2.87;;;9.40;1.00;;;;;;5072456;28;20616;-59
2021/11/01 01:52:59;;;;;;;13.77;3.47;;;9.30;1.00;;;;;;5072346;28;20282;-60
2021/11/01 01:55:25;;;;;;;12.70;2.43;;;9.30;1.00;;;;;;5071922;28;20242;-60
2021/11/01 01:57:53;;;;;;;15.93;2.30;;;9.40;1.00;;;;;;5072422;28;20552;-59
2021/11/01 02:00:35;;;;;;;11.23;2.90;;;9.40;1.00;;;;;;5072399;28;20233;-60
2021/11/01 02:03:02;;;;;;;14.00;2.37;;;9.40;1.00;;;;;;5072135;28;20318;-60
2021/11/01 02:05:41;;;;;;;12.47;2.50;;;9.30;1.00;;;;;;5072069;28;20209;-60
2021/11/01 02:08:10;;;;;;;11.10;2.50;;;9.30;99.90;;;;;;5071995;28;20213;-60
2021/11/01 02:10:44;;;;;;;8.23;2.67;;;9.30;1.00;;;;;;5072394;28;20205;-57
2021/11/01 02:13:16;;;;;;;12.97;2.50;;;9.20;1.00;;;;;;5072089;28;20231;-60
2021/11/01 02:15:46;;;;;;;7.53;1.87;;;9.30;1.00;;;;;;5071856;28;20207;-60
2021/11/01 02:18:14;;;;;;;11.40;2.47;;;9.30;1.00;;;;;;5071921;28;20203;-60
2021/11/01 02:20:49;;;;;;;10.87;2.43;;;9.20;1.00;;;;;;5072441;28;20561;-60
2021/11/01 02:23:22;;;;;;;11.10;2.10;;;9.20;1.00;;;;;;5072140;28;20285;-60
2021/11/01 02:25:53;;;;;;;11.77;2.43;;;9.30;1.00;;;;;;5070922;28;20676;-59
2021/11/01 02:28:21;;;;;;;12.77;2.30;;;9.30;99.90;;;;;;5071943;28;20844;-60
2021/11/01 02:30:50;;;;;;;8.30;2.47;;;9.20;99.90;;;;;;5071678;28;20684;-60
2021/11/01 02:33:19;;;;;;;9.17;2.30;;;9.20;99.90;;;;;;5072293;28;20235;-60
2021/11/01 02:35:46;;;;;;;11.67;2.43;;;9.20;99.90;;;;;;5071679;28;20208;-60
2021/11/01 02:38:14;;;;;;;11.23;2.30;;;9.20;99.90;;;;;;5071714;28;20295;-60
2021/11/01 02:40:41;;;;;;;13.73;2.33;;;9.20;99.90;;;;;;5071782;28;20228;-60
2021/11/01 02:43:09;;;;;;;12.60;2.50;;;9.10;99.90;;;;;;5072150;28;20239;-60
2021/11/01 02:45:36;;;;;;;9.87;1.90;;;9.10;99.90;;;;;;5071384;28;20228;-60
2021/11/01 02:48:03;;;;;;;12.33;2.87;;;9.10;1.00;;;;;;5071833;28;20229;-60
2021/11/01 02:50:30;;;;;;;11.97;2.40;;;9.10;99.90;;;;;;5071903;28;20211;-60
2021/11/01 02:52:57;;;;;;;7.03;2.27;;;9.10;99.90;;;;;;5071546;28;20239;-60
2021/11/01 02:55:24;;;;;;;10.97;2.10;;;9.10;99.90;;;;;;5071475;28;20215;-58
2021/11/01 02:57:51;;;;;;;12.57;2.27;;;9.10;99.90;;;;;;5071580;28;20204;-59
2021/11/01 03:00:23;;;;;;;10.23;2.07;;;9.10;99.90;;;;;;5071497;28;20665;-60
2021/11/01 03:02:51;;;;;;;8.83;1.70;;;9.10;63.50;;;;;;5071636;28;20237;-60
2021/11/01 03:05:19;;;;;;;8.03;1.90;;;9.10;1.00;;;;;;5071293;28;20201;-60
2021/11/01 03:07:48;;;;;;;8.47;2.20;;;9.10;1.00;;;;;;5071516;28;20599;-60
2021/11/01 03:10:16;;;;;;;8.57;1.93;;;9.10;1.00;;;;;;5071319;28;20208;-60
2021/11/01 03:12:45;;;;;;;11.13;1.90;;;9.10;99.90;;;;;;5071481;28;20232;-60
2021/11/01 03:15:19;;;;;;;12.90;2.70;;;9.10;99.90;;;;;;5071215;28;20641;-60
2021/11/01 03:17:52;;;;;;;13.63;2.17;;;9.10;99.90;;;;;;5071573;28;20208;-60
2021/11/01 03:20:21;;;;;;;8.07;2.03;;;9.10;99.90;;;;;;5071375;28;20214;-60
2021/11/01 03:22:52;;;;;;;14.03;2.47;;;9.10;99.90;;;;;;5071069;28;20236;-60
2021/11/01 03:25:27;;;;;;;11.10;1.83;;;9.00;99.90;;;;;;5071194;28;20285;-60
2021/11/01 03:27:56;;;;;;;10.47;1.90;;;9.00;99.90;;;;;;5069980;28;20235;-58
2021/11/01 03:30:24;;;;;;;10.40;1.93;;;9.00;99.90;;;;;;5071167;28;20212;-60
2021/11/01 03:32:53;;;;;;;9.93;2.30;;;9.00;99.90;;;;;;5071290;28;20231;-59
2021/11/01 03:35:21;;;;;;;11.10;2.10;;;9.00;99.90;;;;;;5070918;28;20208;-59
2021/11/01 03:37:51;;;;;;;4.90;1.60;;;9.00;99.90;;;;;;5074159;28;20216;-60
2021/11/01 03:40:20;;;;;;;7.20;1.93;;;9.00;99.90;;;;;;5075096;28;20294;-60
2021/11/01 03:42:48;;;;;;;10.37;2.20;;;9.00;29.70;;;;;;5074838;28;20228;-60
2021/11/01 03:45:15;;;;;;;8.57;2.80;;;9.00;10.60;;;;;;5074547;28;20216;-60
2021/11/01 03:47:43;;;;;;;7.93;2.43;;;9.00;6.70;;;;;;5074695;28;20224;-60
2021/11/01 03:50:20;;;;;;;5.33;1.87;;;9.00;1.00;;;;;;5074725;28;20236;-61
2021/11/01 03:52:49;;;;;;;5.20;1.53;;;9.00;1.00;;;;;;5074672;28;20323;-60
2021/11/01 03:55:17;;;;;;;8.80;1.90;;;9.00;1.00;;;;;;5074295;28;20261;-60
2021/11/01 03:57:45;;;;;;;8.93;2.70;;;9.10;5.70;;;;;;5074579;28;20679;-58
2021/11/01 04:00:13;;;;;;;8.80;2.33;;;9.10;1.00;;;;;;5074514;28;20803;-60
2021/11/01 04:02:40;;;;;;;8.57;2.50;;;9.10;1.00;;;;;;5074385;28;20735;-60
2021/11/01 04:05:08;;;;;;;11.03;2.03;;;9.10;3.10;;;;;;5073927;28;20215;-60
2021/11/01 04:07:36;;;;;;;11.97;2.80;;;9.10;5.10;;;;;;5074495;28;20647;-59
2021/11/01 04:10:03;;;;;;;9.67;2.30;;;9.00;29.80;;;;;;5074329;28;20234;-60
2021/11/01 04:12:30;;;;;;;6.67;2.10;;;9.00;90.50;;;;;;5074377;28;20235;-60
2021/11/01 04:15:01;;;;;;;8.93;2.77;;;9.00;49.90;;;;;;5073860;28;20204;-60
2021/11/01 04:17:38;;;;;;;7.90;1.80;;;9.00;64.20;;;;;;5074540;28;20212;-60
2021/11/01 04:20:12;;;;;;;9.53;2.67;;;9.00;99.90;;;;;;5074155;28;20203;-60
2021/11/01 04:22:40;;;;;;;9.50;2.50;;;9.00;99.90;;;;;;5074019;28;20684;-59
2021/11/01 04:25:08;;;;;;;8.67;1.73;;;9.00;99.90;;;;;;5073785;28;20215;-60
2021/11/01 04:27:35;;;;;;;6.70;2.00;;;9.00;99.90;;;;;;5073842;28;20713;-59
2021/11/01 04:30:02;;;;;;;6.20;2.07;;;9.00;99.90;;;;;;5074359;28;20214;-60
2021/11/01 04:32:34;;;;;;;8.67;2.37;;;9.00;99.90;;;;;;5073991;28;20323;-60
2021/11/01 04:35:04;;;;;;;6.33;2.00;;;8.90;99.90;;;;;;5073711;28;20217;-59
2021/11/01 04:37:31;;;;;;;6.17;2.27;;;8.90;99.90;;;;;;5075299;28;20300;-60
2021/11/01 04:40:11;;;;;;;11.87;2.40;;;8.90;99.90;;;;;;5074468;28;20230;-60
2021/11/01 04:42:59;;;;;;;7.00;2.33;;;9.00;99.90;;;;;;5073724;28;20235;-60
2021/11/01 04:53:39;;;;;;;7.27;2.03;;;9.00;99.90;;;;;;5073419;28;20354;-60
2021/11/01 04:56:08;;;;;;;7.07;1.83;;;8.90;99.90;;;;;;5073165;28;20208;-60
2021/11/01 04:58:35;;;;;;;8.73;1.73;;;9.00;99.90;;;;;;5073207;28;20204;-60
2021/11/01 05:01:03;;;;;;;9.90;2.30;;;9.00;99.90;;;;;;5073545;28;20296;-60
2021/11/01 05:03:35;;;;;;;6.67;1.90;;;9.00;99.90;;;;;;5073200;28;20272;-60
2021/11/01 05:06:02;;;;;;;6.80;1.93;;;9.00;34.90;;;;;;5072937;28;20588;-60
2021/11/01 05:08:38;;;;;;;5.43;2.17;;;9.10;9.10;;;;;;5073228;28;20244;-60
2021/11/01 05:11:13;;;;;;;7.90;1.90;;;9.10;1.00;;;;;;5073051;28;20252;-60
2021/11/01 05:13:41;;;;;;;7.73;1.73;;;9.10;1.00;;;;;;5072959;28;20236;-60
2021/11/01 05:16:12;;;;;;;9.73;1.97;;;9.10;1.00;;;;;;5073020;28;20216;-60
2021/11/01 05:18:44;;;;;;;6.33;1.70;;;9.10;1.00;;;;;;5073123;28;20282;-60
2021/11/01 05:21:23;;;;;;;7.57;2.50;;;9.10;1.00;;;;;;5072926;28;20675;-60
2021/11/01 05:23:54;;;;;;;6.83;2.03;;;9.20;1.00;;;;;;5072903;28;20836;-60
2021/11/01 05:26:28;;;;;;;6.90;2.00;;;9.20;1.00;;;;;;5072578;28;20215;-60
2021/11/01 05:29:00;;;;;;;7.97;2.13;;;9.20;1.00;;;;;;5072839;28;20657;-60
2021/11/01 05:31:28;;;;;;;6.97;1.70;;;9.20;1.00;;;;;;5072830;28;20578;-60
2021/11/01 05:34:01;;;;;;;5.27;1.90;;;9.10;1.00;;;;;;5072678;28;20212;-60
2021/11/01 05:36:29;;;;;;;6.47;2.40;;;9.20;1.00;;;;;;5072261;28;20232;-60
2021/11/01 05:38:56;;;;;;;6.37;2.17;;;9.10;1.00;;;;;;5072819;28;20583;-60
2021/11/01 05:41:22;;;;;;;6.20;1.83;;;9.10;1.00;;;;;;5072697;28;20212;-60
2021/11/01 05:43:49;;;;;;;6.97;2.03;;;9.10;1.00;;;;;;5072572;28;20208;-60
2021/11/01 05:46:18;;;;;;;7.30;1.70;;;9.10;1.00;;;;;;5072347;28;20557;-60
2021/11/01 05:48:50;;;;;;;4.67;1.73;;;9.10;1.00;;;;;;5072133;28;20233;-60
2021/11/01 05:51:19;;;;;;;8.30;2.50;;;9.00;1.00;;;;;;5072600;28;20214;-59
2021/11/01 05:53:49;;;;;;;4.27;1.90;;;9.10;1.00;;;;;;5072505;28;20208;-60
2021/11/01 05:56:26;;;;;;;5.53;1.83;;;9.10;1.00;;;;;;5072206;28;20559;-60
2021/11/01 05:59:05;;;;;;;4.27;1.33;;;9.10;1.00;;;;;;5072538;28;20221;-60
2021/11/01 06:02:07;;;;;;;7.83;1.60;;;9.10;99.90;;;;;;5071696;28;20202;-60
2021/11/01 06:04:44;;;;;;;6.33;1.80;;;9.00;1.00;;;;;;5071994;28;20571;-59
2021/11/01 06:07:22;;;;;;;9.97;2.10;;;9.00;1.00;;;;;;5072992;28;20287;-60
2021/11/01 06:09:56;;;;;;;3.93;1.50;;;9.00;99.90;;;;;;5072280;28;20211;-60
2021/11/01 06:15:08;;;;;;;8.43;1.87;;;9.00;99.90;;;;;;5071800;28;20202;-59
2021/11/01 06:17:37;;;;;;;5.57;2.07;;;9.00;99.90;;;;;;5072001;28;20706;-60
2021/11/01 06:20:05;;;;;;;7.10;1.80;;;9.00;99.90;;;;;;5072007;28;20662;-60
2021/11/01 06:22:32;;;;;;;9.00;1.60;;;9.00;99.90;;;;;;5071995;28;20227;-59
2021/11/01 06:25:01;;;;;;;5.10;1.47;;;9.10;99.90;;;;;;5071850;28;20613;-60
2021/11/01 06:27:29;;;;;;;6.47;1.93;;;9.00;99.90;;;;;;5071872;28;20291;-60
2021/11/01 06:30:03;;;;;;;7.40;1.80;;;9.00;99.90;;;;;;5071957;28;20207;-58
2021/11/01 06:32:34;;;;;;;4.83;1.70;;;9.00;99.90;;;;;;5071850;28;20312;-59
2021/11/01 06:43:18;;;;;;;6.60;1.87;;;9.00;99.90;;;;;;5071403;28;20222;-60
2021/11/01 06:46:02;;;;;;;5.50;1.80;;;9.00;99.90;;;;;;5071768;28;20207;-59
2021/11/01 06:51:28;;;;;;;6.87;1.60;;;8.90;99.90;;;;;;5071598;28;20723;-60
2021/11/01 06:56:47;;;;;;;6.40;1.60;;;8.90;99.90;;;;;;5071362;28;20581;-60
2021/11/01 07:15:46;;;;;;;6.20;1.50;;;9.00;92.60;;;;;;5075157;28;20334;-60
2021/11/01 07:18:14;;;;;;;8.97;1.80;;;9.00;74.90;;;;;;5075389;28;20212;-60
2021/11/01 07:20:50;;;;;;;4.23;1.20;;;9.10;70.70;;;;;;5075505;28;20223;-59
2021/11/01 07:23:41;;;;;;;4.97;1.10;;;9.10;46.00;;;;;;5075330;28;20238;-60
2021/11/01 08:21:42;;;;;;;5.03;1.30;;;10.10;1.00;;;;;;5012240;28;20285;-61
2021/11/01 09:06:09;;;;;;;6.93;1.60;;;10.80;1.00;;;;;;5067607;28;20859;-60
2021/11/01 09:19:52;;;;;;;5.33;1.70;;;11.00;1.00;;;;;;5073080;28;20280;-61
2021/11/01 09:22:41;;;;;;;6.07;1.53;;;10.90;1.00;;;;;;5072873;28;20311;-61
2021/11/01 09:25:15;;;;;;;5.03;1.50;;;10.80;1.00;;;;;;5072894;28;20208;-61
2021/11/01 09:27:50;;;;;;;6.10;1.50;;;11.00;1.00;;;;;;5072681;28;20218;-60
2021/11/01 09:35:51;;;;;;;7.27;1.90;;;11.40;1.00;;;;;;5072087;28;20684;-62
2021/11/01 09:38:30;;;;;;;8.20;2.10;;;11.60;1.00;;;;;;5073287;28;20196;-63
2021/11/01 09:41:02;;;;;;;5.83;1.77;;;11.80;1.00;;;;;;5072905;28;20215;-63
2021/11/01 09:43:29;;;;;;;7.70;2.10;;;11.90;1.00;;;;;;5072379;28;20592;-61
2021/11/01 09:45:56;;;;;;;9.07;1.90;;;11.90;1.00;;;;;;5069037;28;20568;-60
2021/11/01 09:48:23;;;;;;;5.57;1.70;;;11.90;1.00;;;;;;5063358;28;20216;-61
2021/11/01 09:50:52;;;;;;;6.53;1.80;;;11.90;1.00;;;;;;5072308;28;20203;-63
2021/11/01 09:53:22;;;;;;;7.90;1.93;;;11.80;1.00;;;;;;5072085;28;20786;-59
2021/11/01 09:55:55;;;;;;;10.33;1.67;;;11.80;1.00;;;;;;5071760;28;20212;-60
2021/11/01 10:01:08;;;;;;;8.63;2.23;;;11.80;1.00;;;;;;5071551;28;20208;-61
2021/11/01 10:03:38;;;;;;;7.70;1.87;;;11.70;1.00;;;;;;5071299;28;20234;-62
2021/11/01 10:06:08;;;;;;;5.03;1.70;;;11.60;1.00;;;;;;5071326;28;20251;-60
2021/11/01 10:08:35;;;;;;;8.13;1.70;;;11.70;1.00;;;;;;5071955;28;20231;-60
2021/11/01 10:11:16;;;;;;;5.20;1.47;;;11.70;1.00;;;;;;5071978;28;20209;-62
2021/11/01 10:13:43;;;;;;;8.20;1.90;;;11.80;1.00;;;;;;5072027;28;20222;-61
2021/11/01 10:18:54;;;;;;;5.90;1.90;;;11.70;1.00;;;;;;5071815;28;20671;-60
2021/11/01 10:21:22;;;;;;;7.60;1.33;;;11.60;1.00;;;;;;5071793;28;20204;-61
2021/11/01 10:23:51;;;;;;;8.83;1.50;;;11.50;1.00;;;;;;5070969;28;20271;-60
2021/11/01 10:26:20;;;;;;;10.43;1.67;;;11.60;1.00;;;;;;5071227;28;20219;-61
2021/11/01 10:28:48;;;;;;;8.13;2.00;;;11.60;1.00;;;;;;5071529;28;20252;-60
2021/11/01 10:31:19;;;;;;;7.17;1.80;;;11.60;1.00;;;;;;5071930;28;20213;-57
2021/11/01 10:33:48;;;;;;;6.47;1.30;;;11.50;1.00;;;;;;5071960;28;20224;-59
2021/11/01 10:36:27;;;;;;;4.17;1.67;;;11.30;1.00;;;;;;5070958;28;20641;-58
2021/11/01 10:38:56;;;;;;;7.20;1.53;;;11.30;1.00;;;;;;5071301;28;20212;-57
2021/11/01 10:41:28;;;;;;;7.37;1.70;;;11.40;1.00;;;;;;5071207;28;20213;-61
2021/11/01 10:44:03;;;;;;;7.93;1.50;;;11.40;1.00;;;;;;5071583;28;20206;-60
2021/11/01 10:58:10;;;;;;;6.27;1.60;;;12.00;1.00;;;;;;5075362;28;20204;-61
2021/11/01 11:11:46;;;;;;;5.93;1.40;;;13.00;1.00;;;;;;5075033;28;20207;-61
2021/11/01 11:14:21;;;;;;;7.57;1.53;;;13.20;1.00;;;;;;5075631;28;20185;-62
2021/11/01 11:19:45;;;;;;;4.43;1.20;;;13.20;1.00;;;;;;5075167;28;20200;-60
2021/11/01 11:22:34;;;;;;;5.70;1.20;;;13.20;1.00;;;;;;5074844;28;20259;-62
2021/11/01 11:25:18;;;;;;;4.47;1.43;;;13.00;1.00;;;;;;5074874;28;20204;-61
2021/11/01 11:28:06;;;;;;;8.27;1.80;;;13.00;1.00;;;;;;5074057;28;20205;-61
2021/11/01 11:33:46;;;;;;;6.57;1.30;;;13.10;1.00;;;;;;5074789;28;20703;-61
2021/11/01 11:47:45;;;;;;;5.27;1.00;;;12.70;1.00;;;;;;5048674;28;20207;-61
2021/11/01 11:50:16;;;;;;;5.37;1.77;;;12.60;1.00;;;;;;5075042;28;20220;-62
2021/11/01 11:52:43;;;;;;;4.03;1.37;;;12.60;1.00;;;;;;5074751;28;20225;-62
2021/11/01 11:55:20;;;;;;;3.80;1.00;;;12.70;1.00;;;;;;5074183;28;20201;-62
2021/11/01 11:57:56;;;;;;;4.87;1.10;;;12.90;1.00;;;;;;5074381;28;20208;-61
2021/11/01 12:00:26;;;;;;;4.33;1.40;;;13.00;1.00;;;;;;5074688;28;20204;-58
2021/11/01 12:02:56;;;;;;;3.40;1.00;;;13.10;99.90;;;;;;5074127;28;20229;-61
2021/11/01 12:05:34;;;;;;;4.07;1.10;;;13.10;1.00;;;;;;5073925;28;20205;-61
2021/11/01 12:08:05;;;;;;;2.67;0.90;;;13.20;1.00;;;;;;5073436;28;20205;-61
2021/11/01 12:13:42;;;;;;;3.77;1.00;;;13.30;99.90;;;;;;5056664;28;20373;-61
2021/11/01 12:18:57;;;;;;;3.80;0.90;;;13.10;99.90;;;;;;5053633;28;20232;-61
2021/11/01 12:21:25;;;;;;;3.13;1.00;;;13.00;99.90;;;;;;5053943;28;20210;-60
2021/11/01 12:23:52;;;;;;;4.60;1.00;;;12.80;99.90;;;;;;5053907;28;20239;-62
2021/11/01 12:26:21;;;;;;;5.47;1.77;;;12.70;99.90;;;;;;5053567;28;20243;-61
2021/11/01 12:28:52;;;;;;;6.23;1.60;;;12.90;99.90;;;;;;5053325;28;20202;-61
2021/11/01 12:31:19;;;;;;;4.57;1.67;;;13.20;1.00;;;;;;5053910;28;20209;-62
2021/11/01 12:33:52;;;;;;;3.07;1.13;;;13.40;1.00;;;;;;5053721;28;20225;-60
2021/11/01 12:36:23;;;;;;;3.93;1.03;;;13.70;1.00;;;;;;5053105;28;20210;-60
2021/11/01 12:38:53;;;;;;;6.40;1.30;;;13.90;99.90;;;;;;5053226;28;20244;-62
2021/11/01 12:41:33;;;;;;;3.00;1.00;;;13.90;99.90;;;;;;5053371;28;20206;-60
2021/11/01 12:57:46;;;;;;;3.60;0.90;;;14.10;99.90;;;;;;5052826;28;20252;-60
2021/11/01 13:00:15;;;;;;;4.30;0.73;;;13.90;99.90;;;;;;5052839;28;20213;-60
2021/11/01 13:02:44;;;;;;;3.53;0.90;;;13.80;99.90;;;;;;5053058;28;20312;-60
2021/11/01 13:05:16;;;;;;;2.90;0.60;;;13.80;99.90;;;;;;5052688;28;20600;-60
2021/11/01 13:07:51;;;;;;;1.67;0.90;;;13.80;99.90;;;;;;5052936;28;20198;-60
2021/11/01 13:10:24;;;;;;;3.07;1.00;;;13.70;99.90;;;;;;5052392;28;20925;-59
2021/11/01 13:18:23;;;;;;;3.10;1.00;;;13.30;99.90;;;;;;5052503;28;20208;-60
2021/11/01 13:20:54;;;;;;;5.43;0.97;;;13.30;99.90;;;;;;5052661;28;20201;-60
2021/11/01 13:23:23;;;;;;;3.73;0.93;;;13.40;99.90;;;;;;5053011;28;20225;-60
2021/11/01 13:26:20;;;;;;;2.53;0.80;;;13.30;99.90;;;;;;5052287;28;20581;-58
2021/11/01 13:29:15;;;;;;;3.47;0.90;;;13.10;99.90;;;;;;5051642;28;20205;-61
2021/11/01 13:37:22;;;;;;;4.00;0.90;;;13.10;99.90;;;;;;5043095;28;20288;-58
2021/11/01 13:40:01;;;;;;;7.27;1.67;;;12.90;99.90;;;;;;5052276;28;20296;-58
2021/11/01 13:42:34;;;;;;;3.17;1.10;;;12.90;99.90;;;;;;5052223;28;20225;-58
2021/11/01 13:45:10;;;;;;;7.30;1.20;;;12.90;99.90;;;;;;5051585;28;20206;-58
2021/11/01 13:47:44;;;;;;;4.50;1.03;;;13.00;99.90;;;;;;5051872;28;20206;-58
2021/11/01 13:50:11;;;;;;;6.47;1.10;;;13.20;99.90;;;;;;5051964;28;20311;-59
2021/11/01 13:52:40;;;;;;;2.80;1.07;;;13.20;99.90;;;;;;5052194;28;20316;-59
2021/11/01 13:55:12;;;;;;;3.40;1.17;;;13.10;99.90;;;;;;5051928;28;20300;-60
2021/11/01 13:57:51;;;;;;;3.27;0.80;;;12.90;99.90;;;;;;5051740;28;20237;-63
2021/11/01 14:00:39;;;;;;;5.37;1.07;;;13.00;99.90;;;;;;5051892;28;20211;-61
2021/11/01 14:03:23;;;;;;;3.90;1.00;;;13.00;99.90;;;;;;5051783;28;20717;-61
2021/11/01 14:11:26;;;;;;;7.30;1.10;;;12.90;99.90;;;;;;5051879;28;20228;-59
2021/11/01 14:14:01;;;;;;;3.20;1.17;;;12.80;99.90;;;;;;5052228;28;20304;-58
2021/11/01 14:16:32;;;;;;;4.80;1.00;;;12.70;99.90;;;;;;5051749;28;20205;-58
2021/11/01 14:19:21;;;;;;;3.60;1.00;;;12.70;99.90;;;;;;5052602;28;20244;-58
2021/11/01 14:55:41;;;;;;;5.73;1.40;;;12.30;99.90;;;;;;5051253;28;20343;-59
2021/11/01 14:58:32;;;;;;;5.50;1.10;;;12.20;99.90;;;;;;5051398;28;20206;-59
2021/11/01 15:01:35;;;;;;;4.70;1.43;;;12.20;99.90;;;;;;5051459;28;20616;-59
2021/11/01 15:18:13;;;;;;;3.83;1.60;;;11.90;99.90;;;;;;5051087;28;20190;-62
2021/11/01 15:20:50;;;;;;;4.37;2.00;;;11.90;99.90;;;;;;5050236;28;20212;-61
2021/11/01 15:23:36;;;;;;;5.43;1.70;;;11.70;99.90;;;;;;5050903;28;20233;-62
2021/11/01 15:26:26;;;;;;;6.03;1.47;;;11.70;99.90;;;;;;5050044;28;20719;-62
2021/11/01 15:29:20;;;;;;;5.70;1.30;;;11.60;99.90;;;;;;5050353;28;20207;-62
2021/11/01 15:40:16;;;;;;;6.00;1.90;;;11.60;99.90;;;;;;5053260;28;20197;-63
2021/11/01 16:18:42;;;;;;;4.10;1.60;;;11.20;99.90;;;;;;5052599;28;20218;-61
2021/11/01 16:21:09;;;;;;;4.93;1.40;;;11.20;99.90;;;;;;5052698;28;20296;-62
2021/11/01 16:23:36;;;;;;;7.10;1.57;;;11.10;99.90;;;;;;5053233;28;20233;-62
2021/11/01 16:28:53;;;;;;;5.30;1.30;;;11.00;99.90;;;;;;5051943;28;20263;-62
2021/11/01 16:31:29;;;;;;;4.33;1.30;;;10.90;99.90;;;;;;5052698;28;20315;-61
2021/11/01 16:34:01;;;;;;;3.03;1.30;;;10.90;99.90;;;;;;5053852;28;20575;-61
2021/11/01 16:36:58;;;;;;;5.53;1.77;;;10.80;99.90;;;;;;5052031;28;20714;-62
2021/11/01 16:39:26;;;;;;;7.90;2.73;;;10.70;99.90;;;;;;5053490;28;20555;-61
2021/11/01 16:41:54;;;;;;;6.43;2.63;;;10.70;99.90;;;;;;5053391;28;20705;-61
2021/11/01 16:44:24;;;;;;;7.20;2.10;;;10.70;99.90;;;;;;5052493;28;20638;-61
2021/11/01 16:46:53;;;;;;;4.00;1.50;;;10.70;99.90;;;;;;5052628;28;20242;-61
2021/11/01 16:49:21;;;;;;;6.80;1.70;;;10.60;99.90;;;;;;5052370;28;20202;-61
2021/11/01 16:51:49;;;;;;;5.80;1.60;;;10.60;99.90;;;;;;5052318;28;20226;-61
2021/11/01 16:54:19;;;;;;;4.60;2.00;;;10.60;99.90;;;;;;5053093;28;20214;-60
2021/11/01 16:57:00;;;;;;;5.80;1.80;;;10.60;99.90;;;;;;5052882;28;20233;-61
2021/11/01 17:02:37;;;;;;;12.97;4.60;;;10.50;99.90;;;;;;5049253;28;20533;-64
2021/11/01 17:05:13;;;;;;;5.90;2.13;;;10.40;99.90;;;;;;5051633;28;20214;-63
2021/11/01 17:07:53;;;;;;;9.93;3.07;;;10.40;99.90;;;;;;5052446;28;20674;-62
2021/11/01 17:10:54;;;;;;;3.80;1.70;;;10.60;1.00;;;;;;5052537;28;20232;-65
2021/11/01 17:21:49;;;;;;;4.03;1.30;;;10.70;99.90;;;;;;5052503;28;20216;-61
2021/11/01 17:24:22;;;;;;;6.87;1.40;;;10.60;99.90;;;;;;5051692;28;20252;-61
2021/11/01 17:27:11;;;;;;;8.93;2.93;;;10.40;99.90;;;;;;5052025;28;20241;-61
2021/11/01 17:30:05;;;;;;;6.43;2.30;;;10.20;99.90;;;;;;5052094;28;20202;-61
2021/11/01 17:35:36;;;;;;;7.00;2.63;;;9.90;99.90;;;;;;5051949;28;20203;-61
2021/11/01 18:42:22;;;;;;;10.70;2.60;;;9.10;1.00;;;;;;5045233;28;20227;-61
2021/11/01 18:45:03;;;;;;;7.17;2.30;;;9.10;1.00;;;;;;5050404;28;20570;-61
2021/11/01 18:53:06;;;;;;;4.33;1.90;;;9.10;1.00;;;;;;5051272;28;20223;-61
2021/11/01 18:55:33;;;;;;;7.80;2.30;;;9.10;1.00;;;;;;5051088;28;20588;-61
2021/11/01 18:58:03;;;;;;;4.90;1.73;;;9.10;1.00;;;;;;5051128;28;20558;-60
2021/11/01 19:00:34;;;;;;;4.73;1.93;;;9.10;1.00;;;;;;5051083;28;20208;-61
2021/11/01 19:03:02;;;;;;;2.90;1.60;;;9.10;1.00;;;;;;5051234;28;20261;-61
2021/11/01 19:05:33;;;;;;;7.50;2.20;;;9.20;1.00;;;;;;5050471;28;20215;-61
2021/11/01 19:08:10;;;;;;;5.47;1.90;;;9.20;1.00;;;;;;5052307;28;20234;-61
2021/11/01 19:11:21;;;;;;;8.50;2.17;;;9.20;1.00;;;;;;5055092;28;20318;-61
2021/11/01 20:04:18;;;;;;;12.17;1.97;;;9.40;1.00;;;;;;5053619;28;20227;-63
2021/11/01 20:12:42;;;;;;;4.10;1.83;;;9.40;1.00;;;;;;5053325;28;20240;-63
2021/11/01 21:24:36;;;;;;;3.90;1.60;;;8.60;1.00;;;;;;5072762;28;20229;-62
2021/11/01 21:27:04;;;;;;;5.70;1.70;;;8.60;1.00;;;;;;5073169;28;20212;-62
2021/11/01 21:29:33;;;;;;;6.93;1.80;;;8.60;1.00;;;;;;5072951;28;20209;-62
2021/11/01 21:32:01;;;;;;;3.60;1.60;;;8.60;1.00;;;;;;5072308;28;20238;-62
2021/11/01 21:34:32;;;;;;;5.47;1.83;;;8.50;1.00;;;;;;5071316;28;20693;-62
2021/11/01 21:36:59;;;;;;;5.43;1.73;;;8.50;1.00;;;;;;5071925;28;20208;-62
2021/11/01 21:39:26;;;;;;;3.13;1.40;;;8.50;1.00;;;;;;5072839;28;20210;-61
2021/11/01 21:41:53;;;;;;;4.13;1.80;;;8.50;1.00;;;;;;5072065;28;20232;-60
2021/11/01 21:44:22;;;;;;;8.00;1.90;;;8.50;1.00;;;;;;5072335;28;20264;-62
2021/11/01 21:46:48;;;;;;;5.03;2.03;;;8.50;1.00;;;;;;5071333;28;20204;-62
2021/11/01 21:49:15;;;;;;;7.00;1.90;;;8.50;1.00;;;;;;5072359;28;20563;-61
2021/11/01 21:51:43;;;;;;;8.10;2.10;;;8.50;1.00;;;;;;5071252;28;20237;-62
2021/11/01 21:54:20;;;;;;;5.57;1.97;;;8.40;1.00;;;;;;5072259;28;20254;-62
2021/11/01 21:56:51;;;;;;;5.60;1.73;;;8.40;1.00;;;;;;5071536;28;20552;-62
2021/11/01 21:59:30;;;;;;;5.83;2.33;;;8.30;1.00;;;;;;5070926;28;20213;-62
2021/11/01 22:10:38;;;;;;;5.73;1.83;;;8.20;1.00;;;;;;5071949;28;20233;-62
2021/11/01 22:18:45;;;;;;;8.57;2.03;;;8.10;1.00;;;;;;5072110;28;20245;-62
2021/11/01 22:21:16;;;;;;;7.03;1.93;;;8.10;1.00;;;;;;5072242;28;20209;-62
2021/11/01 22:23:47;;;;;;;4.07;1.77;;;8.10;1.00;;;;;;5071093;28;20713;-62
2021/11/01 22:26:25;;;;;;;5.60;1.90;;;8.00;1.00;;;;;;5070106;28;20201;-62
2021/11/01 22:34:23;;;;;;;6.10;2.00;;;8.00;1.00;;;;;;5071811;28;20682;-61
2021/11/01 22:39:43;;;;;;;4.40;2.00;;;8.00;1.00;;;;;;5070175;28;20203;-62
2021/11/01 22:42:19;;;;;;;9.37;2.00;;;8.00;1.00;;;;;;5071251;28;20311;-62
2021/11/01 22:45:07;;;;;;;5.63;1.77;;;8.00;1.00;;;;;;5070602;28;20258;-61